Time;durP1;ratioP1;P1;durP2;ratioP2;P2;SDS_P1;SDS_P2;PMS_P1;PMS_P2;Temp;Humidity;BMP_temperature;BMP_pressure;BME280_temperature;BME280_humidity;BME280_pressure;Samples;Min_cycle;Max_cycle;Signal;HPM_P1;HPM_P2
2021/10/13 00:02:19;;;;;;;;;;;20.90;55.40;;;;;;5086922;28;19928;-55
2021/10/13 00:04:46;;;;;;;;;;;20.90;55.40;;;;;;5071928;28;20377;-53
2021/10/13 00:07:13;;;;;;;;;;;20.90;55.40;;;;;;5071442;28;20011;-55
2021/10/13 00:09:40;;;;;;;;;;;20.90;55.40;;;;;;5071385;28;19924;-56
2021/10/13 00:12:07;;;;;;;;;;;20.90;55.40;;;;;;5072422;28;20411;-56
2021/10/13 00:14:34;;;;;;;;;;;20.90;55.40;;;;;;5072560;28;19924;-56
2021/10/13 00:17:05;;;;;;;;;;;20.80;55.30;;;;;;5072187;28;19964;-53
2021/10/13 00:19:32;;;;;;;;;;;20.90;55.40;;;;;;5072586;28;19954;-58
2021/10/13 00:21:59;;;;;;;;;;;20.90;56.00;;;;;;5072750;28;19924;-57
2021/10/13 00:24:26;;;;;;;;;;;20.90;55.50;;;;;;5072582;28;19971;-56
2021/10/13 00:26:53;;;;;;;;;;;20.90;55.50;;;;;;5072597;28;19924;-57
2021/10/13 00:29:21;;;;;;;;;;;20.80;55.40;;;;;;5071304;28;19925;-56
2021/10/13 00:31:48;;;;;;;;;;;20.90;55.50;;;;;;5071120;28;20427;-55
2021/10/13 00:34:16;;;;;;;;;;;20.80;55.40;;;;;;5086483;28;19924;-53
2021/10/13 00:36:43;;;;;;;;;;;20.90;55.50;;;;;;5072415;28;20023;-55
2021/10/13 00:39:10;;;;;;;;;;;20.90;55.50;;;;;;5071333;28;19970;-58
2021/10/13 00:41:37;;;;;;;;;;;20.80;55.40;;;;;;5071558;28;19960;-58
2021/10/13 00:44:04;;;;;;;;;;;20.90;55.40;;;;;;5072370;28;20344;-55
2021/10/13 00:46:31;;;;;;;;;;;20.80;55.30;;;;;;5072362;28;19993;-57
2021/10/13 00:48:59;;;;;;;;;;;20.90;55.50;;;;;;5054524;28;19936;-57
2021/10/13 00:51:28;;;;;;;;;;;20.90;55.50;;;;;;5055251;28;19959;-55
2021/10/13 00:53:55;;;;;;;;;;;20.90;55.50;;;;;;5071921;28;20059;-56
2021/10/13 00:56:24;;;;;;;;;;;20.90;55.50;;;;;;5070665;28;19963;-55
2021/10/13 00:58:50;;;;;;;;;;;20.90;55.50;;;;;;5071884;28;19972;-52
2021/10/13 01:01:40;;;;;;;;;;;20.80;55.40;;;;;;5071840;28;20020;-56
2021/10/13 01:04:27;;;;;;;;;;;20.80;55.40;;;;;;5070700;28;19932;-52
2021/10/13 01:07:10;;;;;;;;;;;20.90;55.50;;;;;;5061366;28;20293;-56
2021/10/13 01:09:54;;;;;;;;;;;20.90;55.50;;;;;;5071044;28;19959;-56
2021/10/13 01:12:33;;;;;;;;;;;20.90;55.50;;;;;;5071905;28;19968;-55
2021/10/13 01:15:03;;;;;;;;;;;20.90;55.50;;;;;;5070652;28;20455;-55
2021/10/13 01:17:34;;;;;;;;;;;20.90;55.50;;;;;;5071656;28;20020;-55
2021/10/13 01:20:14;;;;;;;;;;;20.90;55.50;;;;;;5071925;28;19952;-57
2021/10/13 01:22:59;;;;;;;;;;;20.80;55.40;;;;;;5071807;28;20355;-55
2021/10/13 01:25:32;;;;;;;;;;;20.80;55.50;;;;;;5052805;28;19924;-52
2021/10/13 01:28:03;;;;;;;;;;;20.90;55.50;;;;;;5071409;28;20367;-57
2021/10/13 01:30:34;;;;;;;;;;;20.80;55.40;;;;;;5071493;28;19968;-55
2021/10/13 01:33:06;;;;;;;;;;;20.80;55.40;;;;;;5071588;28;19931;-53
2021/10/13 01:35:38;;;;;;;;;;;20.80;55.40;;;;;;5071680;28;19932;-55
2021/10/13 01:38:07;;;;;;;;;;;20.80;55.40;;;;;;5071656;28;21241;-54
2021/10/13 01:40:36;;;;;;;;;;;20.80;55.40;;;;;;5072329;28;19981;-56
2021/10/13 01:43:04;;;;;;;;;;;20.80;55.40;;;;;;5069976;28;19931;-55
2021/10/13 01:45:34;;;;;;;;;;;20.80;55.40;;;;;;5070633;28;20344;-55
2021/10/13 01:48:03;;;;;;;;;;;20.80;55.40;;;;;;5071389;28;20020;-56
2021/10/13 01:50:31;;;;;;;;;;;20.80;55.40;;;;;;5070551;28;19967;-56
2021/10/13 01:52:59;;;;;;;;;;;20.80;55.50;;;;;;5070713;28;19929;-56
2021/10/13 01:55:27;;;;;;;;;;;20.80;55.40;;;;;;5075439;28;19924;-56
2021/10/13 01:57:56;;;;;;;;;;;20.80;55.50;;;;;;5073701;28;19925;-53
2021/10/13 02:00:23;;;;;;;;;;;20.80;55.40;;;;;;5074054;28;19963;-54
2021/10/13 02:02:51;;;;;;;;;;;20.80;55.40;;;;;;5074985;28;20338;-56
2021/10/13 02:05:19;;;;;;;;;;;20.80;55.40;;;;;;5074251;28;19925;-56
2021/10/13 02:07:47;;;;;;;;;;;20.80;55.40;;;;;;5075266;28;19964;-57
2021/10/13 02:10:16;;;;;;;;;;;20.80;55.40;;;;;;5075049;28;19925;-58
2021/10/13 02:12:45;;;;;;;;;;;20.80;55.40;;;;;;5074153;28;19928;-58
2021/10/13 02:15:13;;;;;;;;;;;20.80;55.40;;;;;;5088945;28;19924;-54
2021/10/13 02:17:42;;;;;;;;;;;20.80;55.40;;;;;;5065105;28;19979;-55
2021/10/13 02:20:09;;;;;;;;;;;20.80;55.40;;;;;;5051894;28;19950;-56
2021/10/13 02:22:37;;;;;;;;;;;20.80;56.00;;;;;;5073433;28;19924;-57
2021/10/13 02:25:04;;;;;;;;;;;20.80;55.40;;;;;;5074510;28;19924;-57
2021/10/13 02:27:34;;;;;;;;;;;20.80;55.40;;;;;;5074488;28;19999;-56
2021/10/13 02:30:02;;;;;;;;;;;20.80;55.40;;;;;;5073772;28;19931;-59
2021/10/13 02:32:29;;;;;;;;;;;20.80;55.40;;;;;;5073328;28;20356;-56
2021/10/13 02:34:57;;;;;;;;;;;20.80;55.40;;;;;;5090110;28;20341;-56
2021/10/13 02:37:24;;;;;;;;;;;20.80;55.50;;;;;;5074210;28;19924;-55
2021/10/13 02:39:51;;;;;;;;;;;20.80;55.40;;;;;;5056863;28;19928;-55
2021/10/13 02:42:18;;;;;;;;;;;20.80;55.50;;;;;;5088152;28;19970;-56
2021/10/13 02:44:45;;;;;;;;;;;20.80;55.40;;;;;;5074588;28;19970;-56
2021/10/13 02:47:20;;;;;;;;;;;20.80;55.40;;;;;;5074429;28;19990;-52
2021/10/13 02:49:50;;;;;;;;;;;20.80;55.40;;;;;;5073006;28;20003;-55
2021/10/13 02:52:17;;;;;;;;;;;20.80;55.50;;;;;;5073367;28;19924;-57
2021/10/13 02:54:49;;;;;;;;;;;20.80;55.40;;;;;;5074032;28;20292;-56
2021/10/13 02:57:17;;;;;;;;;;;20.80;55.40;;;;;;5072844;28;19970;-58
2021/10/13 02:59:46;;;;;;;;;;;20.80;55.40;;;;;;5072083;28;19960;-53
2021/10/13 03:02:19;;;;;;;;;;;20.80;55.40;;;;;;5073175;28;19978;-58
2021/10/13 03:04:51;;;;;;;;;;;20.80;55.40;;;;;;5071782;28;19955;-57
2021/10/13 03:07:23;;;;;;;;;;;20.80;55.40;;;;;;5072783;28;19973;-55
2021/10/13 03:09:53;;;;;;;;;;;20.80;55.50;;;;;;5072632;28;19931;-55
2021/10/13 03:12:21;;;;;;;;;;;20.80;55.50;;;;;;5072753;28;19928;-55
2021/10/13 03:14:49;;;;;;;;;;;20.80;55.50;;;;;;5073095;28;20287;-55
2021/10/13 03:17:16;;;;;;;;;;;20.80;55.40;;;;;;5086789;28;19924;-56
2021/10/13 03:19:44;;;;;;;;;;;20.80;55.50;;;;;;5071813;28;19925;-56
2021/10/13 03:22:11;;;;;;;;;;;20.80;55.40;;;;;;5072595;28;19933;-54
2021/10/13 03:24:41;;;;;;;;;;;20.80;55.40;;;;;;5086627;28;20004;-57
2021/10/13 03:27:08;;;;;;;;;;;20.80;55.40;;;;;;5070961;28;20425;-58
2021/10/13 03:29:42;;;;;;;;;;;20.80;55.50;;;;;;5071602;28;20388;-55
2021/10/13 03:32:09;;;;;;;;;;;20.80;55.50;;;;;;5071358;28;19971;-55
2021/10/13 03:34:39;;;;;;;;;;;20.80;55.50;;;;;;5071360;28;20036;-57
2021/10/13 03:37:06;;;;;;;;;;;20.80;55.50;;;;;;5071306;28;20344;-57
2021/10/13 03:39:33;;;;;;;;;;;20.80;55.50;;;;;;5055169;28;19968;-55
2021/10/13 03:42:01;;;;;;;;;;;20.80;55.50;;;;;;5072603;28;19946;-51
2021/10/13 03:44:28;;;;;;;;;;;20.80;55.50;;;;;;5071411;28;20007;-56
2021/10/13 03:46:55;;;;;;;;;;;20.80;55.50;;;;;;5053836;28;19967;-55
2021/10/13 03:49:22;;;;;;;;;;;20.80;55.50;;;;;;5088026;28;20734;-56
2021/10/13 03:51:49;;;;;;;;;;;20.80;55.50;;;;;;5072192;28;19928;-57
2021/10/13 03:54:16;;;;;;;;;;;20.80;55.50;;;;;;5063732;28;20023;-53
2021/10/13 03:56:43;;;;;;;;;;;20.80;55.50;;;;;;5070262;28;19974;-55
2021/10/13 03:59:10;;;;;;;;;;;20.80;55.50;;;;;;5070799;28;20011;-57
2021/10/13 04:01:38;;;;;;;;;;;20.80;55.50;;;;;;5071025;28;20322;-57
2021/10/13 04:04:05;;;;;;;;;;;20.80;55.50;;;;;;5071250;28;19931;-56
2021/10/13 04:06:32;;;;;;;;;;;20.80;55.50;;;;;;5072272;28;19925;-54
2021/10/13 04:08:59;;;;;;;;;;;20.80;55.50;;;;;;5072256;28;19928;-58
2021/10/13 04:11:26;;;;;;;;;;;20.80;55.40;;;;;;5071250;28;19964;-54
2021/10/13 04:13:53;;;;;;;;;;;20.80;55.50;;;;;;5070502;28;20422;-54
2021/10/13 04:16:20;;;;;;;;;;;20.80;55.50;;;;;;5070361;28;19925;-57
2021/10/13 04:18:47;;;;;;;;;;;20.80;55.50;;;;;;5071233;28;20019;-55
2021/10/13 04:21:14;;;;;;;;;;;20.80;55.50;;;;;;5070559;28;19971;-57
2021/10/13 04:23:41;;;;;;;;;;;20.70;55.30;;;;;;5071724;28;19924;-54
2021/10/13 04:26:08;;;;;;;;;;;20.80;55.40;;;;;;5069716;28;19924;-57
2021/10/13 04:28:35;;;;;;;;;;;20.80;55.50;;;;;;5071350;28;20015;-56
2021/10/13 04:31:02;;;;;;;;;;;20.80;55.40;;;;;;5070428;28;19924;-55
2021/10/13 04:33:29;;;;;;;;;;;20.80;55.40;;;;;;5071520;28;19929;-58
2021/10/13 04:35:56;;;;;;;;;;;20.70;55.40;;;;;;5071042;28;19931;-54
2021/10/13 04:38:23;;;;;;;;;;;20.70;55.40;;;;;;5070176;28;20008;-58
2021/10/13 04:40:50;;;;;;;;;;;20.80;55.40;;;;;;5070234;28;19955;-54
2021/10/13 04:43:17;;;;;;;;;;;20.80;55.40;;;;;;5071469;28;19974;-57
2021/10/13 04:45:44;;;;;;;;;;;20.80;55.40;;;;;;5069338;28;20011;-57
2021/10/13 04:48:11;;;;;;;;;;;20.70;55.30;;;;;;5069750;28;19960;-56
2021/10/13 04:50:38;;;;;;;;;;;20.80;55.40;;;;;;5071449;28;19924;-53
2021/10/13 04:53:05;;;;;;;;;;;20.80;55.40;;;;;;5069569;28;20424;-58
2021/10/13 04:55:32;;;;;;;;;;;20.80;55.40;;;;;;5069656;28;20360;-56
2021/10/13 04:57:59;;;;;;;;;;;20.80;55.40;;;;;;5069591;28;19924;-54
2021/10/13 05:00:28;;;;;;;;;;;20.70;55.30;;;;;;5071525;28;19928;-58
2021/10/13 05:03:01;;;;;;;;;;;20.80;55.40;;;;;;5070668;28;19929;-55
2021/10/13 05:05:28;;;;;;;;;;;20.80;55.40;;;;;;5070623;28;19983;-54
2021/10/13 05:07:55;;;;;;;;;;;20.80;56.00;;;;;;5086321;28;19978;-57
2021/10/13 05:10:22;;;;;;;;;;;20.80;55.40;;;;;;5071105;28;19979;-59
2021/10/13 05:12:49;;;;;;;;;;;20.80;55.40;;;;;;5071260;28;20375;-57
2021/10/13 05:15:16;;;;;;;;;;;20.80;55.40;;;;;;5070815;28;20336;-55
2021/10/13 05:17:43;;;;;;;;;;;20.80;55.40;;;;;;5070538;28;20019;-57
2021/10/13 05:20:10;;;;;;;;;;;20.80;55.40;;;;;;5071128;28;19972;-56
2021/10/13 05:22:37;;;;;;;;;;;20.80;55.40;;;;;;5071021;28;20466;-57
2021/10/13 05:25:05;;;;;;;;;;;20.80;55.40;;;;;;5070442;28;20023;-56
2021/10/13 05:27:32;;;;;;;;;;;20.80;55.40;;;;;;5072320;28;20007;-54
2021/10/13 05:29:59;;;;;;;;;;;20.80;55.40;;;;;;5075135;28;19935;-57
2021/10/13 05:32:26;;;;;;;;;;;20.80;55.40;;;;;;5074076;28;19928;-57
2021/10/13 05:34:53;;;;;;;;;;;20.70;55.30;;;;;;5074079;28;19924;-56
2021/10/13 05:37:20;;;;;;;;;;;20.80;55.40;;;;;;5074504;28;19924;-56
2021/10/13 05:39:47;;;;;;;;;;;20.80;55.30;;;;;;5073724;28;19924;-56
2021/10/13 05:42:14;;;;;;;;;;;20.80;55.40;;;;;;5073547;28;19924;-56
2021/10/13 05:44:41;;;;;;;;;;;20.80;55.30;;;;;;5074123;28;19929;-55
2021/10/13 05:47:08;;;;;;;;;;;20.80;55.30;;;;;;5072845;28;19925;-58
2021/10/13 05:49:37;;;;;;;;;;;20.80;55.30;;;;;;5074900;28;20289;-53
2021/10/13 05:52:05;;;;;;;;;;;20.80;55.30;;;;;;5073666;28;19928;-52
2021/10/13 05:54:32;;;;;;;;;;;20.80;55.40;;;;;;5074497;28;20030;-57
2021/10/13 05:57:00;;;;;;;;;;;20.70;55.30;;;;;;5073366;28;20359;-56
2021/10/13 05:59:27;;;;;;;;;;;20.80;55.30;;;;;;5074833;28;20359;-57
2021/10/13 06:01:54;;;;;;;;;;;20.80;55.30;;;;;;5074603;28;19925;-58
2021/10/13 06:04:21;;;;;;;;;;;20.80;55.30;;;;;;5073813;28;20369;-57
2021/10/13 06:06:48;;;;;;;;;;;20.80;55.30;;;;;;5072259;28;19924;-57
2021/10/13 06:09:15;;;;;;;;;;;20.80;55.30;;;;;;5074119;28;19981;-55
2021/10/13 06:11:42;;;;;;;;;;;20.80;55.20;;;;;;5072999;28;19929;-56
2021/10/13 06:14:09;;;;;;;;;;;20.80;55.20;;;;;;5072601;28;19971;-57
2021/10/13 06:16:36;;;;;;;;;;;20.80;55.20;;;;;;5073282;28;19929;-55
2021/10/13 06:19:03;;;;;;;;;;;20.80;55.20;;;;;;5089687;28;19928;-56
2021/10/13 06:21:30;;;;;;;;;;;20.80;55.20;;;;;;5074229;28;20299;-58
2021/10/13 06:23:57;;;;;;;;;;;20.80;55.20;;;;;;5074434;28;20265;-55
2021/10/13 06:26:24;;;;;;;;;;;20.80;55.20;;;;;;5071166;28;19951;-57
2021/10/13 06:28:51;;;;;;;;;;;20.80;55.10;;;;;;5072908;28;19967;-57
2021/10/13 06:31:18;;;;;;;;;;;20.80;55.10;;;;;;5074103;28;19924;-56
2021/10/13 06:33:45;;;;;;;;;;;20.80;55.10;;;;;;5073291;28;19924;-57
2021/10/13 06:36:12;;;;;;;;;;;20.80;55.10;;;;;;5057984;28;19955;-56
2021/10/13 06:38:39;;;;;;;;;;;20.80;55.10;;;;;;5061830;28;19986;-55
2021/10/13 06:41:09;;;;;;;;;;;20.80;55.10;;;;;;5072366;28;19928;-53
2021/10/13 06:43:37;;;;;;;;;;;20.80;55.10;;;;;;5072667;28;19974;-55
2021/10/13 06:46:04;;;;;;;;;;;20.80;55.10;;;;;;5071501;28;19951;-58
2021/10/13 06:48:32;;;;;;;;;;;20.80;55.10;;;;;;5072841;28;19924;-57
2021/10/13 06:50:59;;;;;;;;;;;20.80;55.10;;;;;;5072842;28;19931;-56
2021/10/13 06:53:27;;;;;;;;;;;20.90;55.10;;;;;;5073533;28;19947;-56
2021/10/13 06:55:57;;;;;;;;;;;20.90;55.10;;;;;;5072641;28;19930;-57
2021/10/13 06:58:24;;;;;;;;;;;20.80;55.10;;;;;;5072868;28;20034;-56
2021/10/13 07:00:51;;;;;;;;;;;20.90;55.10;;;;;;5073434;28;19966;-54
2021/10/13 07:03:18;;;;;;;;;;;20.80;55.00;;;;;;5073195;28;20377;-56
2021/10/13 07:05:45;;;;;;;;;;;20.90;55.10;;;;;;5072772;28;19932;-57
2021/10/13 07:08:13;;;;;;;;;;;20.80;54.90;;;;;;5071752;28;19967;-54
2021/10/13 07:10:40;;;;;;;;;;;20.80;54.90;;;;;;5073204;28;19929;-55
2021/10/13 07:13:07;;;;;;;;;;;20.90;55.00;;;;;;5053861;28;20430;-55
2021/10/13 07:15:35;;;;;;;;;;;20.90;54.90;;;;;;5055563;28;19925;-56
2021/10/13 07:18:02;;;;;;;;;;;20.90;54.90;;;;;;5071333;28;19963;-56
2021/10/13 07:20:29;;;;;;;;;;;20.90;54.80;;;;;;5072726;28;20380;-56
2021/10/13 07:22:57;;;;;;;;;;;20.90;54.80;;;;;;5072868;28;19925;-57
2021/10/13 07:25:27;;;;;;;;;;;20.90;54.80;;;;;;5070821;28;20384;-54
2021/10/13 07:27:58;;;;;;;;;;;20.90;54.80;;;;;;5071018;28;20444;-56
2021/10/13 07:30:25;;;;;;;;;;;21.00;54.80;;;;;;5072687;28;19987;-57
2021/10/13 07:32:52;;;;;;;;;;;20.90;54.80;;;;;;5070941;28;19924;-56
2021/10/13 07:35:20;;;;;;;;;;;20.90;54.80;;;;;;5072374;28;19986;-58
2021/10/13 07:37:48;;;;;;;;;;;20.90;54.80;;;;;;5065953;28;19924;-55
2021/10/13 07:40:16;;;;;;;;;;;20.90;54.70;;;;;;5072062;28;20351;-57
2021/10/13 07:42:43;;;;;;;;;;;20.90;54.70;;;;;;5072302;28;20419;-56
2021/10/13 07:45:10;;;;;;;;;;;21.00;54.70;;;;;;5054090;28;19928;-57
2021/10/13 07:47:37;;;;;;;;;;;21.00;54.70;;;;;;5072020;28;19931;-56
2021/10/13 07:50:05;;;;;;;;;;;21.00;54.70;;;;;;5071455;28;19925;-57
2021/10/13 07:52:32;;;;;;;;;;;21.00;54.80;;;;;;5074307;28;20392;-57
2021/10/13 07:54:59;;;;;;;;;;;21.00;54.60;;;;;;5070467;28;19932;-58
2021/10/13 07:57:26;;;;;;;;;;;21.00;54.60;;;;;;5071811;28;19974;-53
2021/10/13 07:59:53;;;;;;;;;;;21.00;54.60;;;;;;5072292;28;19971;-55
2021/10/13 08:02:20;;;;;;;;;;;21.00;54.50;;;;;;5071875;28;19964;-57
2021/10/13 08:04:48;;;;;;;;;;;21.00;54.40;;;;;;5071620;28;19935;-54
2021/10/13 08:07:16;;;;;;;;;;;21.10;54.50;;;;;;5071217;28;19931;-57
2021/10/13 08:09:44;;;;;;;;;;;21.10;54.40;;;;;;5070794;28;19924;-54
2021/10/13 08:12:11;;;;;;;;;;;21.10;54.40;;;;;;5072095;28;19925;-59
2021/10/13 08:14:38;;;;;;;;;;;21.10;54.40;;;;;;5071016;28;19925;-53
2021/10/13 08:17:07;;;;;;;;;;;21.10;54.40;;;;;;5068725;28;19924;-55
2021/10/13 08:19:34;;;;;;;;;;;21.10;54.40;;;;;;5070925;28;20324;-58
2021/10/13 08:22:01;;;;;;;;;;;21.10;54.40;;;;;;5070562;28;19932;-57
2021/10/13 08:24:28;;;;;;;;;;;21.10;54.40;;;;;;5071231;28;20315;-54
2021/10/13 08:26:55;;;;;;;;;;;21.10;54.40;;;;;;5071158;28;19995;-55
2021/10/13 08:29:22;;;;;;;;;;;21.10;54.40;;;;;;5070533;28;19950;-54
2021/10/13 08:31:50;;;;;;;;;;;21.10;54.40;;;;;;5070363;28;19931;-58
2021/10/13 08:34:17;;;;;;;;;;;21.10;54.40;;;;;;5071209;28;19982;-56
2021/10/13 08:36:44;;;;;;;;;;;21.10;54.40;;;;;;5070868;28;19924;-58
2021/10/13 08:39:11;;;;;;;;;;;21.10;54.40;;;;;;5071028;28;19928;-57
2021/10/13 08:41:38;;;;;;;;;;;21.10;54.40;;;;;;5071774;28;20007;-59
2021/10/13 08:44:05;;;;;;;;;;;21.00;54.40;;;;;;5069988;28;19967;-59
2021/10/13 08:46:32;;;;;;;;;;;21.10;54.40;;;;;;5069313;28;19925;-55
2021/10/13 08:48:59;;;;;;;;;;;21.10;54.40;;;;;;5072553;28;20000;-59
2021/10/13 08:51:31;;;;;;;;;;;21.10;54.40;;;;;;5070581;28;19974;-54
2021/10/13 08:53:59;;;;;;;;;;;21.10;54.40;;;;;;5086459;28;19993;-56
2021/10/13 08:56:26;;;;;;;;;;;21.10;54.40;;;;;;5070714;28;20471;-55
2021/10/13 08:58:53;;;;;;;;;;;21.10;54.40;;;;;;5070351;28;19924;-57
2021/10/13 09:01:20;;;;;;;;;;;21.10;54.30;;;;;;5070817;28;19951;-58
2021/10/13 09:03:54;;;;;;;;;;;21.10;54.40;;;;;;5071287;28;20283;-58
2021/10/13 09:06:29;;;;;;;;;;;21.10;54.30;;;;;;5053917;28;20402;-55
2021/10/13 09:09:01;;;;;;;;;;;21.10;54.30;;;;;;5068967;28;20035;-58
2021/10/13 09:11:34;;;;;;;;;;;21.10;54.30;;;;;;5071490;28;19924;-53
2021/10/13 09:14:04;;;;;;;;;;;21.10;54.30;;;;;;5085941;28;19936;-57
2021/10/13 09:16:44;;;;;;;;;;;21.10;54.30;;;;;;5069523;28;19925;-56
2021/10/13 09:19:11;;;;;;;;;;;21.10;54.30;;;;;;5068814;28;19924;-55
2021/10/13 09:21:49;;;;;;;;;;;21.10;54.20;;;;;;5069393;28;20376;-54
2021/10/13 09:24:16;;;;;;;;;;;21.10;54.20;;;;;;5070592;28;19931;-55
2021/10/13 09:26:44;;;;;;;;;;;21.10;54.30;;;;;;5069976;28;20300;-56
2021/10/13 09:29:11;;;;;;;;;;;21.10;54.20;;;;;;5070484;28;19946;-56
2021/10/13 09:31:38;;;;;;;;;;;21.10;54.20;;;;;;5070413;28;20000;-58
2021/10/13 09:34:08;;;;;;;;;;;21.10;54.20;;;;;;5069157;28;19932;-54
2021/10/13 09:36:43;;;;;;;;;;;21.10;54.20;;;;;;5069075;28;19932;-54
2021/10/13 09:39:17;;;;;;;;;;;21.10;54.20;;;;;;5070669;28;20558;-55
2021/10/13 09:41:56;;;;;;;;;;;21.20;54.30;;;;;;5070758;28;19931;-57
2021/10/13 09:44:24;;;;;;;;;;;21.10;54.20;;;;;;5070922;28;19929;-60
2021/10/13 09:46:55;;;;;;;;;;;21.20;54.90;;;;;;5085742;28;20007;-53
2021/10/13 09:49:26;;;;;;;;;;;21.20;54.90;;;;;;5070286;28;20008;-56
2021/10/13 09:51:59;;;;;;;;;;;21.20;54.30;;;;;;5070706;28;20011;-56
2021/10/13 09:54:26;;;;;;;;;;;21.10;54.20;;;;;;5070537;28;19932;-58
2021/10/13 09:56:53;;;;;;;;;;;21.10;54.20;;;;;;5069658;28;19924;-57
2021/10/13 09:59:21;;;;;;;;;;;21.20;54.30;;;;;;5069701;28;19924;-55
2021/10/13 10:01:49;;;;;;;;;;;21.20;54.30;;;;;;5070525;28;20394;-54
2021/10/13 10:04:19;;;;;;;;;;;21.10;54.20;;;;;;5070079;28;19931;-58
2021/10/13 10:06:50;;;;;;;;;;;21.20;54.30;;;;;;5069606;28;19985;-57
2021/10/13 10:09:18;;;;;;;;;;;21.20;54.30;;;;;;5069213;28;19924;-57
2021/10/13 10:11:47;;;;;;;;;;;21.20;54.30;;;;;;5070535;28;20327;-56
2021/10/13 10:14:37;;;;;;;;;;;21.20;54.30;;;;;;5072248;28;19924;-54
2021/10/13 10:17:06;;;;;;;;;;;21.20;54.30;;;;;;5073350;28;19985;-54
2021/10/13 10:19:42;;;;;;;;;;;21.20;54.20;;;;;;5074310;28;19925;-53
2021/10/13 10:22:14;;;;;;;;;;;21.20;54.20;;;;;;5072663;28;19924;-56
2021/10/13 10:24:51;;;;;;;;;;;21.20;54.10;;;;;;5073923;28;19924;-57
2021/10/13 10:27:35;;;;;;;;;;;21.20;54.10;;;;;;5056457;28;20388;-58
2021/10/13 10:30:08;;;;;;;;;;;21.20;54.10;;;;;;5056982;28;19978;-54
2021/10/13 10:32:39;;;;;;;;;;;21.20;54.10;;;;;;5072960;28;19925;-55
2021/10/13 10:35:12;;;;;;;;;;;21.20;54.10;;;;;;5056305;28;20372;-58
2021/10/13 10:37:41;;;;;;;;;;;21.30;54.10;;;;;;5072736;28;19939;-56
2021/10/13 10:40:10;;;;;;;;;;;21.30;54.10;;;;;;5072232;28;19939;-57
2021/10/13 10:42:46;;;;;;;;;;;21.30;54.10;;;;;;5087949;28;19925;-53
2021/10/13 10:45:18;;;;;;;;;;;21.30;54.10;;;;;;5054983;28;19924;-56
2021/10/13 10:47:55;;;;;;;;;;;21.30;54.10;;;;;;5072131;28;19940;-56
2021/10/13 10:50:58;;;;;;;;;;;21.40;54.20;;;;;;5073343;28;19932;-52
2021/10/13 10:53:37;;;;;;;;;;;21.40;54.40;;;;;;5012264;28;19932;-59
2021/10/13 10:56:16;;;;;;;;;;;21.50;54.70;;;;;;5022748;28;19925;-58
2021/10/13 10:58:55;;;;;;;;;;;21.40;54.70;;;;;;5014019;28;19972;-55
2021/10/13 11:01:22;;;;;;;;;;;21.40;54.50;;;;;;5011164;28;19930;-56
2021/10/13 11:03:50;;;;;;;;;;;21.40;54.50;;;;;;5011297;28;19929;-55
2021/10/13 11:06:20;;;;;;;;;;;21.40;54.50;;;;;;5010095;28;19933;-55
2021/10/13 11:08:54;;;;;;;;;;;21.40;54.50;;;;;;5012055;28;19926;-56
2021/10/13 11:11:25;;;;;;;;;;;21.40;54.50;;;;;;5011042;28;20389;-57
2021/10/13 11:13:57;;;;;;;;;;;21.40;54.50;;;;;;5014698;28;19928;-56
2021/10/13 11:16:24;;;;;;;;;;;21.40;54.60;;;;;;5006864;28;19929;-58
2021/10/13 11:18:51;;;;;;;;;;;21.40;54.60;;;;;;4999638;28;19926;-57
2021/10/13 11:21:19;;;;;;;;;;;21.40;54.70;;;;;;5013116;28;20024;-53
2021/10/13 11:23:46;;;;;;;;;;;21.40;54.80;;;;;;5011386;28;20381;-59
2021/10/13 11:26:13;;;;;;;;;;;21.40;54.80;;;;;;5009458;28;19925;-58
2021/10/13 11:28:42;;;;;;;;;;;21.40;54.90;;;;;;5050873;28;19937;-55
2021/10/13 11:31:09;;;;;;;;;;;21.40;54.90;;;;;;5052678;28;19975;-59
2021/10/13 11:33:38;;;;;;;;;;;21.40;54.90;;;;;;5051979;28;19924;-59
2021/10/13 11:36:06;;;;;;;;;;;21.40;54.80;;;;;;5050503;28;19925;-60
2021/10/13 11:38:36;;;;;;;;;;;21.40;54.90;;;;;;5051665;28;19925;-57
2021/10/13 11:41:06;;;;;;;;;;;21.40;54.90;;;;;;5052715;28;19979;-59
2021/10/13 11:43:33;;;;;;;;;;;21.40;54.90;;;;;;5052547;28;19924;-59
2021/10/13 11:46:01;;;;;;;;;;;21.40;55.00;;;;;;5051741;28;19929;-58
2021/10/13 11:48:32;;;;;;;;;;;21.40;55.00;;;;;;5050965;28;20293;-58
2021/10/13 11:51:00;;;;;;;;;;;21.40;55.10;;;;;;5036063;28;19974;-58
2021/10/13 11:53:28;;;;;;;;;;;21.50;55.20;;;;;;5058628;28;20380;-56
2021/10/13 11:55:55;;;;;;;;;;;21.40;55.20;;;;;;5071248;28;20418;-57
2021/10/13 11:58:24;;;;;;;;;;;21.40;55.30;;;;;;5043039;28;19940;-58
2021/10/13 12:00:52;;;;;;;;;;;21.40;55.30;;;;;;5069593;28;20011;-57
2021/10/13 12:03:31;;;;;;;;;;;21.40;55.40;;;;;;5054358;28;19953;-57
2021/10/13 12:06:13;;;;;;;;;;;21.40;55.40;;;;;;5071497;28;19924;-58
2021/10/13 12:08:41;;;;;;;;;;;21.40;55.40;;;;;;5070926;28;20456;-57
2021/10/13 12:11:17;;;;;;;;;;;21.40;55.40;;;;;;5072244;28;19967;-57
2021/10/13 12:13:46;;;;;;;;;;;21.50;55.50;;;;;;5071771;28;19931;-55
2021/10/13 12:16:33;;;;;;;;;;;21.40;55.40;;;;;;5055904;28;19931;-57
2021/10/13 12:19:10;;;;;;;;;;;21.40;55.50;;;;;;5056579;28;19924;-57
2021/10/13 12:21:37;;;;;;;;;;;21.40;55.50;;;;;;5071221;28;20007;-56
2021/10/13 12:24:05;;;;;;;;;;;21.40;56.10;;;;;;5070741;28;20334;-57
2021/10/13 12:26:36;;;;;;;;;;;21.40;55.50;;;;;;5069633;28;19928;-56
2021/10/13 12:29:09;;;;;;;;;;;21.40;55.50;;;;;;5073309;28;20007;-56
2021/10/13 12:31:36;;;;;;;;;;;21.40;55.50;;;;;;5075064;28;19929;-54
2021/10/13 12:34:08;;;;;;;;;;;21.40;55.50;;;;;;5073236;28;20016;-56
2021/10/13 12:36:38;;;;;;;;;;;21.40;55.70;;;;;;5070610;28;19924;-56
2021/10/13 12:39:07;;;;;;;;;;;21.40;55.50;;;;;;5054121;28;19931;-58
2021/10/13 12:41:36;;;;;;;;;;;21.40;55.60;;;;;;5070814;28;20004;-58
2021/10/13 12:44:13;;;;;;;;;;;21.40;55.60;;;;;;5071395;28;20011;-56
2021/10/13 12:46:51;;;;;;;;;;;21.40;55.60;;;;;;5070590;28;20362;-57
2021/10/13 12:49:22;;;;;;;;;;;21.40;55.60;;;;;;5070411;28;19925;-57
2021/10/13 12:51:51;;;;;;;;;;;21.40;55.70;;;;;;5071583;28;19928;-55
2021/10/13 12:54:18;;;;;;;;;;;21.40;55.70;;;;;;5069512;28;19951;-56
2021/10/13 12:56:47;;;;;;;;;;;21.40;55.80;;;;;;5068914;28;20211;-55
2021/10/13 12:59:18;;;;;;;;;;;21.40;55.70;;;;;;5071302;28;19931;-55
2021/10/13 13:01:45;;;;;;;;;;;21.40;55.70;;;;;;5071047;28;19940;-54
2021/10/13 13:04:13;;;;;;;;;;;21.40;55.70;;;;;;5069888;28;20007;-55
2021/10/13 13:06:41;;;;;;;;;;;21.40;55.70;;;;;;5070902;28;20335;-56
2021/10/13 13:09:08;;;;;;;;;;;21.40;55.70;;;;;;5070419;28;19925;-57
2021/10/13 13:11:35;;;;;;;;;;;21.40;55.70;;;;;;5070869;28;20029;-54
2021/10/13 13:14:03;;;;;;;;;;;21.40;55.80;;;;;;5070848;28;19924;-55
2021/10/13 13:16:33;;;;;;;;;;;21.40;55.70;;;;;;5069288;28;19924;-58
2021/10/13 13:19:00;;;;;;;;;;;21.40;55.70;;;;;;5070791;28;19925;-55
2021/10/13 13:21:27;;;;;;;;;;;21.40;56.30;;;;;;5069855;28;19932;-57
2021/10/13 13:23:54;;;;;;;;;;;21.40;55.70;;;;;;5070925;28;19925;-58
2021/10/13 13:26:22;;;;;;;;;;;21.40;55.70;;;;;;5061643;28;20408;-54
2021/10/13 13:28:50;;;;;;;;;;;21.40;55.70;;;;;;5070166;28;19986;-54
2021/10/13 13:31:17;;;;;;;;;;;21.30;55.70;;;;;;5069804;28;19932;-56
2021/10/13 13:33:44;;;;;;;;;;;21.30;55.70;;;;;;5069831;28;20339;-55
2021/10/13 13:36:12;;;;;;;;;;;21.30;56.30;;;;;;5070510;28;20349;-55
2021/10/13 13:38:39;;;;;;;;;;;21.30;55.70;;;;;;5070904;28;19963;-56
2021/10/13 13:41:07;;;;;;;;;;;21.30;55.70;;;;;;5049875;28;19924;-56
2021/10/13 13:43:34;;;;;;;;;;;21.30;55.70;;;;;;5070658;28;19928;-56
2021/10/13 13:46:01;;;;;;;;;;;21.30;55.70;;;;;;5069712;28;19932;-56
2021/10/13 13:48:28;;;;;;;;;;;21.30;55.70;;;;;;5071104;28;19931;-55
2021/10/13 13:50:56;;;;;;;;;;;21.30;55.70;;;;;;5073788;28;19929;-56
2021/10/13 13:53:24;;;;;;;;;;;21.30;55.70;;;;;;5074390;28;19928;-56
2021/10/13 13:55:52;;;;;;;;;;;21.30;55.70;;;;;;5072668;28;19972;-57
2021/10/13 13:58:19;;;;;;;;;;;21.30;55.70;;;;;;5073986;28;19924;-56
2021/10/13 14:00:46;;;;;;;;;;;21.30;55.70;;;;;;5073566;28;19952;-57
2021/10/13 14:03:13;;;;;;;;;;;21.30;55.70;;;;;;5073816;28;20547;-57
2021/10/13 14:05:41;;;;;;;;;;;21.30;55.70;;;;;;5072835;28;19925;-53
2021/10/13 14:08:08;;;;;;;;;;;21.30;55.70;;;;;;5074336;28;19932;-59
2021/10/13 14:10:47;;;;;;;;;;;21.30;55.80;;;;;;5073802;28;19925;-50
2021/10/13 14:13:14;;;;;;;;;;;21.30;55.80;;;;;;5073969;28;20341;-58
2021/10/13 14:15:41;;;;;;;;;;;21.30;55.80;;;;;;5072249;28;19924;-57
2021/10/13 14:18:09;;;;;;;;;;;21.30;55.90;;;;;;5073013;28;19924;-52
2021/10/13 14:20:36;;;;;;;;;;;21.20;55.80;;;;;;5073172;28;20356;-56
2021/10/13 14:23:03;;;;;;;;;;;21.20;55.80;;;;;;5074334;28;20003;-58
2021/10/13 14:25:29;;;;;;;;;;;21.20;55.90;;;;;;5072226;28;19966;-57
2021/10/13 14:27:56;;;;;;;;;;;21.20;55.90;;;;;;5072939;28;20302;-58